sensor_id;sensor_type;location;lat;lon;timestamp;P1;durP1;ratioP1;P2;durP2;ratioP2
50012;SDS011;35901;48.694;9.476;2024-03-22T00:01:40;22.70;;;18.07;;
50012;SDS011;35901;48.694;9.476;2024-03-22T00:04:05;25.83;;;18.83;;
50012;SDS011;35901;48.694;9.476;2024-03-22T00:06:31;24.97;;;19.70;;
50012;SDS011;35901;48.694;9.476;2024-03-22T00:08:57;28.80;;;21.60;;
50012;SDS011;35901;48.694;9.476;2024-03-22T00:11:22;30.57;;;21.43;;
50012;SDS011;35901;48.694;9.476;2024-03-22T00:13:48;33.30;;;21.93;;
50012;SDS011;35901;48.694;9.476;2024-03-22T00:16:13;28.50;;;19.70;;
50012;SDS011;35901;48.694;9.476;2024-03-22T00:18:39;31.40;;;22.10;;
50012;SDS011;35901;48.694;9.476;2024-03-22T00:21:05;31.33;;;22.50;;
50012;SDS011;35901;48.694;9.476;2024-03-22T00:23:30;33.73;;;23.00;;
50012;SDS011;35901;48.694;9.476;2024-03-22T00:25:56;33.97;;;24.40;;
50012;SDS011;35901;48.694;9.476;2024-03-22T00:28:22;36.40;;;25.57;;
50012;SDS011;35901;48.694;9.476;2024-03-22T00:30:47;26.03;;;20.77;;
50012;SDS011;35901;48.694;9.476;2024-03-22T00:33:13;31.90;;;22.93;;
50012;SDS011;35901;48.694;9.476;2024-03-22T00:35:39;32.63;;;24.97;;
50012;SDS011;35901;48.694;9.476;2024-03-22T00:38:04;31.23;;;24.20;;
50012;SDS011;35901;48.694;9.476;2024-03-22T00:40:30;33.30;;;24.20;;
50012;SDS011;35901;48.694;9.476;2024-03-22T00:42:56;24.97;;;19.97;;
50012;SDS011;35901;48.694;9.476;2024-03-22T00:45:21;27.57;;;19.27;;
50012;SDS011;35901;48.694;9.476;2024-03-22T00:47:47;24.70;;;19.73;;
50012;SDS011;35901;48.694;9.476;2024-03-22T00:50:12;22.10;;;18.07;;
50012;SDS011;35901;48.694;9.476;2024-03-22T00:52:39;28.60;;;20.40;;
50012;SDS011;35901;48.694;9.476;2024-03-22T00:55:04;25.83;;;20.10;;
50012;SDS011;35901;48.694;9.476;2024-03-22T00:57:30;27.33;;;20.67;;
50012;SDS011;35901;48.694;9.476;2024-03-22T00:59:56;27.63;;;20.23;;
50012;SDS011;35901;48.694;9.476;2024-03-22T01:02:21;27.53;;;20.63;;
50012;SDS011;35901;48.694;9.476;2024-03-22T01:04:48;30.30;;;21.33;;
50012;SDS011;35901;48.694;9.476;2024-03-22T01:07:13;27.83;;;21.20;;
50012;SDS011;35901;48.694;9.476;2024-03-22T01:09:39;29.57;;;21.80;;
50012;SDS011;35901;48.694;9.476;2024-03-22T01:12:05;29.87;;;21.13;;
50012;SDS011;35901;48.694;9.476;2024-03-22T01:14:31;33.07;;;23.20;;
50012;SDS011;35901;48.694;9.476;2024-03-22T01:16:56;34.80;;;25.17;;
50012;SDS011;35901;48.694;9.476;2024-03-22T01:19:22;36.93;;;25.77;;
50012;SDS011;35901;48.694;9.476;2024-03-22T01:21:48;36.80;;;25.73;;
50012;SDS011;35901;48.694;9.476;2024-03-22T01:24:14;35.77;;;22.67;;
50012;SDS011;35901;48.694;9.476;2024-03-22T01:26:40;35.90;;;25.30;;
50012;SDS011;35901;48.694;9.476;2024-03-22T01:29:05;32.13;;;23.40;;
50012;SDS011;35901;48.694;9.476;2024-03-22T01:31:31;34.97;;;23.70;;
50012;SDS011;35901;48.694;9.476;2024-03-22T01:33:57;34.43;;;24.60;;
50012;SDS011;35901;48.694;9.476;2024-03-22T01:36:22;33.80;;;23.50;;
50012;SDS011;35901;48.694;9.476;2024-03-22T01:38:48;31.53;;;23.47;;
50012;SDS011;35901;48.694;9.476;2024-03-22T01:41:13;32.10;;;22.17;;
50012;SDS011;35901;48.694;9.476;2024-03-22T01:43:39;32.23;;;23.57;;
50012;SDS011;35901;48.694;9.476;2024-03-22T01:46:05;30.63;;;23.23;;
50012;SDS011;35901;48.694;9.476;2024-03-22T01:48:33;30.73;;;22.20;;
50012;SDS011;35901;48.694;9.476;2024-03-22T01:50:59;36.50;;;24.67;;
50012;SDS011;35901;48.694;9.476;2024-03-22T01:53:25;38.17;;;26.17;;
50012;SDS011;35901;48.694;9.476;2024-03-22T01:55:51;45.40;;;27.97;;
50012;SDS011;35901;48.694;9.476;2024-03-22T01:58:17;34.73;;;25.23;;
50012;SDS011;35901;48.694;9.476;2024-03-22T02:00:43;41.83;;;27.87;;
50012;SDS011;35901;48.694;9.476;2024-03-22T02:03:09;44.07;;;28.80;;
50012;SDS011;35901;48.694;9.476;2024-03-22T02:05:35;39.27;;;27.07;;
50012;SDS011;35901;48.694;9.476;2024-03-22T02:08:01;42.90;;;28.07;;
50012;SDS011;35901;48.694;9.476;2024-03-22T02:10:26;53.53;;;32.47;;
50012;SDS011;35901;48.694;9.476;2024-03-22T02:12:52;47.93;;;30.50;;
50012;SDS011;35901;48.694;9.476;2024-03-22T02:15:17;37.77;;;27.03;;
50012;SDS011;35901;48.694;9.476;2024-03-22T02:17:43;37.73;;;26.57;;
50012;SDS011;35901;48.694;9.476;2024-03-22T02:20:09;39.50;;;27.57;;
50012;SDS011;35901;48.694;9.476;2024-03-22T02:22:37;40.67;;;28.53;;
50012;SDS011;35901;48.694;9.476;2024-03-22T02:25:03;43.80;;;28.10;;
50012;SDS011;35901;48.694;9.476;2024-03-22T02:27:29;40.00;;;27.50;;
50012;SDS011;35901;48.694;9.476;2024-03-22T02:29:55;37.13;;;25.97;;
50012;SDS011;35901;48.694;9.476;2024-03-22T02:32:21;38.33;;;25.67;;
50012;SDS011;35901;48.694;9.476;2024-03-22T02:34:46;42.13;;;26.83;;
50012;SDS011;35901;48.694;9.476;2024-03-22T02:37:12;37.47;;;26.30;;
50012;SDS011;35901;48.694;9.476;2024-03-22T02:39:38;38.17;;;27.00;;
50012;SDS011;35901;48.694;9.476;2024-03-22T02:42:03;37.10;;;25.50;;
50012;SDS011;35901;48.694;9.476;2024-03-22T02:44:29;37.90;;;26.47;;
50012;SDS011;35901;48.694;9.476;2024-03-22T02:46:55;37.93;;;25.63;;
50012;SDS011;35901;48.694;9.476;2024-03-22T02:49:21;34.73;;;24.07;;
50012;SDS011;35901;48.694;9.476;2024-03-22T02:51:46;33.20;;;23.63;;
50012;SDS011;35901;48.694;9.476;2024-03-22T02:54:13;35.83;;;24.37;;
50012;SDS011;35901;48.694;9.476;2024-03-22T02:56:39;36.07;;;24.27;;
50012;SDS011;35901;48.694;9.476;2024-03-22T02:59:05;34.33;;;23.63;;
50012;SDS011;35901;48.694;9.476;2024-03-22T03:01:30;30.73;;;22.03;;
50012;SDS011;35901;48.694;9.476;2024-03-22T03:03:56;32.37;;;23.53;;
50012;SDS011;35901;48.694;9.476;2024-03-22T03:06:22;28.77;;;19.97;;
50012;SDS011;35901;48.694;9.476;2024-03-22T03:08:47;30.90;;;21.33;;
50012;SDS011;35901;48.694;9.476;2024-03-22T03:11:14;31.00;;;21.20;;
50012;SDS011;35901;48.694;9.476;2024-03-22T03:13:39;30.70;;;21.80;;
50012;SDS011;35901;48.694;9.476;2024-03-22T03:16:05;32.87;;;21.63;;
50012;SDS011;35901;48.694;9.476;2024-03-22T03:18:31;31.17;;;22.10;;
50012;SDS011;35901;48.694;9.476;2024-03-22T03:20:57;30.53;;;21.50;;
50012;SDS011;35901;48.694;9.476;2024-03-22T03:23:22;28.80;;;19.23;;
50012;SDS011;35901;48.694;9.476;2024-03-22T03:25:48;35.87;;;22.87;;
50012;SDS011;35901;48.694;9.476;2024-03-22T03:28:14;30.97;;;21.83;;
50012;SDS011;35901;48.694;9.476;2024-03-22T03:30:39;40.17;;;24.67;;
50012;SDS011;35901;48.694;9.476;2024-03-22T03:33:05;47.90;;;27.97;;
50012;SDS011;35901;48.694;9.476;2024-03-22T03:35:31;44.63;;;28.70;;
50012;SDS011;35901;48.694;9.476;2024-03-22T03:37:56;39.47;;;25.50;;
50012;SDS011;35901;48.694;9.476;2024-03-22T03:40:22;43.57;;;27.20;;
50012;SDS011;35901;48.694;9.476;2024-03-22T03:42:50;44.83;;;27.63;;
50012;SDS011;35901;48.694;9.476;2024-03-22T03:45:16;45.77;;;28.93;;
50012;SDS011;35901;48.694;9.476;2024-03-22T03:47:42;47.37;;;29.87;;
50012;SDS011;35901;48.694;9.476;2024-03-22T03:50:07;45.70;;;29.40;;
50012;SDS011;35901;48.694;9.476;2024-03-22T03:52:33;44.67;;;26.93;;
50012;SDS011;35901;48.694;9.476;2024-03-22T03:54:59;49.27;;;29.17;;
50012;SDS011;35901;48.694;9.476;2024-03-22T03:57:25;44.07;;;28.03;;
50012;SDS011;35901;48.694;9.476;2024-03-22T03:59:51;53.03;;;30.53;;
50012;SDS011;35901;48.694;9.476;2024-03-22T04:02:17;51.73;;;30.90;;
50012;SDS011;35901;48.694;9.476;2024-03-22T04:04:42;44.00;;;28.93;;
50012;SDS011;35901;48.694;9.476;2024-03-22T04:07:08;45.93;;;28.47;;
50012;SDS011;35901;48.694;9.476;2024-03-22T04:09:34;54.63;;;30.53;;
50012;SDS011;35901;48.694;9.476;2024-03-22T04:12:00;38.83;;;25.33;;
50012;SDS011;35901;48.694;9.476;2024-03-22T04:14:26;51.37;;;30.67;;
50012;SDS011;35901;48.694;9.476;2024-03-22T04:16:51;43.77;;;27.47;;
50012;SDS011;35901;48.694;9.476;2024-03-22T04:19:19;55.27;;;33.50;;
50012;SDS011;35901;48.694;9.476;2024-03-22T04:21:46;49.20;;;32.13;;
50012;SDS011;35901;48.694;9.476;2024-03-22T04:24:11;45.83;;;31.10;;
50012;SDS011;35901;48.694;9.476;2024-03-22T04:26:37;48.87;;;30.03;;
50012;SDS011;35901;48.694;9.476;2024-03-22T04:29:03;48.97;;;28.17;;
50012;SDS011;35901;48.694;9.476;2024-03-22T04:31:29;42.07;;;27.93;;
50012;SDS011;35901;48.694;9.476;2024-03-22T04:33:54;38.17;;;26.40;;
50012;SDS011;35901;48.694;9.476;2024-03-22T04:36:21;41.37;;;27.57;;
50012;SDS011;35901;48.694;9.476;2024-03-22T04:38:46;40.63;;;28.30;;
50012;SDS011;35901;48.694;9.476;2024-03-22T04:41:12;39.47;;;27.07;;
50012;SDS011;35901;48.694;9.476;2024-03-22T04:43:38;41.03;;;27.00;;
50012;SDS011;35901;48.694;9.476;2024-03-22T04:46:03;43.80;;;28.67;;
50012;SDS011;35901;48.694;9.476;2024-03-22T04:48:29;46.93;;;30.00;;
50012;SDS011;35901;48.694;9.476;2024-03-22T04:50:55;39.83;;;26.93;;
50012;SDS011;35901;48.694;9.476;2024-03-22T04:53:21;44.40;;;29.10;;
50012;SDS011;35901;48.694;9.476;2024-03-22T04:55:47;40.50;;;26.87;;
50012;SDS011;35901;48.694;9.476;2024-03-22T04:58:14;47.80;;;30.63;;
50012;SDS011;35901;48.694;9.476;2024-03-22T05:00:44;46.10;;;30.17;;
50012;SDS011;35901;48.694;9.476;2024-03-22T05:03:10;43.03;;;27.90;;
50012;SDS011;35901;48.694;9.476;2024-03-22T05:05:37;46.97;;;28.30;;
50012;SDS011;35901;48.694;9.476;2024-03-22T05:08:03;41.23;;;26.97;;
50012;SDS011;35901;48.694;9.476;2024-03-22T05:10:29;43.53;;;27.90;;
50012;SDS011;35901;48.694;9.476;2024-03-22T05:12:56;42.90;;;27.93;;
50012;SDS011;35901;48.694;9.476;2024-03-22T05:15:22;42.37;;;26.53;;
50012;SDS011;35901;48.694;9.476;2024-03-22T05:17:48;44.23;;;26.97;;
50012;SDS011;35901;48.694;9.476;2024-03-22T05:20:14;39.63;;;23.97;;
50012;SDS011;35901;48.694;9.476;2024-03-22T05:22:41;45.57;;;27.40;;
50012;SDS011;35901;48.694;9.476;2024-03-22T05:25:07;43.03;;;26.93;;
50012;SDS011;35901;48.694;9.476;2024-03-22T05:27:33;43.63;;;27.93;;
50012;SDS011;35901;48.694;9.476;2024-03-22T05:29:59;51.40;;;28.87;;
50012;SDS011;35901;48.694;9.476;2024-03-22T05:32:25;52.73;;;31.03;;
50012;SDS011;35901;48.694;9.476;2024-03-22T05:34:52;44.03;;;26.57;;
50012;SDS011;35901;48.694;9.476;2024-03-22T05:37:18;46.53;;;28.10;;
50012;SDS011;35901;48.694;9.476;2024-03-22T05:39:44;46.63;;;29.17;;
50012;SDS011;35901;48.694;9.476;2024-03-22T05:42:09;47.17;;;29.27;;
50012;SDS011;35901;48.694;9.476;2024-03-22T05:44:35;38.77;;;25.90;;
50012;SDS011;35901;48.694;9.476;2024-03-22T05:47:01;36.37;;;24.60;;
50012;SDS011;35901;48.694;9.476;2024-03-22T05:49:26;35.47;;;25.40;;
50012;SDS011;35901;48.694;9.476;2024-03-22T05:51:52;34.47;;;23.97;;
50012;SDS011;35901;48.694;9.476;2024-03-22T05:54:18;27.10;;;19.53;;
50012;SDS011;35901;48.694;9.476;2024-03-22T05:56:45;27.13;;;20.07;;
50012;SDS011;35901;48.694;9.476;2024-03-22T05:59:11;26.03;;;18.87;;
50012;SDS011;35901;48.694;9.476;2024-03-22T06:01:36;23.63;;;17.80;;
50012;SDS011;35901;48.694;9.476;2024-03-22T06:04:03;25.90;;;18.23;;
50012;SDS011;35901;48.694;9.476;2024-03-22T06:06:32;23.43;;;17.47;;
50012;SDS011;35901;48.694;9.476;2024-03-22T06:08:59;23.57;;;18.03;;
50012;SDS011;35901;48.694;9.476;2024-03-22T06:11:28;26.23;;;19.27;;
50012;SDS011;35901;48.694;9.476;2024-03-22T06:13:54;23.23;;;17.40;;
50012;SDS011;35901;48.694;9.476;2024-03-22T06:16:19;27.90;;;19.37;;
50012;SDS011;35901;48.694;9.476;2024-03-22T06:18:45;26.30;;;18.30;;
50012;SDS011;35901;48.694;9.476;2024-03-22T06:21:11;27.10;;;19.33;;
50012;SDS011;35901;48.694;9.476;2024-03-22T06:23:39;25.03;;;18.50;;
50012;SDS011;35901;48.694;9.476;2024-03-22T06:26:05;26.63;;;19.63;;
50012;SDS011;35901;48.694;9.476;2024-03-22T06:28:31;29.97;;;20.63;;
50012;SDS011;35901;48.694;9.476;2024-03-22T06:30:56;27.70;;;20.40;;
50012;SDS011;35901;48.694;9.476;2024-03-22T06:33:22;25.33;;;18.17;;
50012;SDS011;35901;48.694;9.476;2024-03-22T06:35:47;22.47;;;18.13;;
50012;SDS011;35901;48.694;9.476;2024-03-22T06:38:13;25.67;;;19.07;;
50012;SDS011;35901;48.694;9.476;2024-03-22T06:40:39;21.17;;;17.03;;
50012;SDS011;35901;48.694;9.476;2024-03-22T06:43:04;21.63;;;16.90;;
50012;SDS011;35901;48.694;9.476;2024-03-22T06:45:30;17.20;;;14.63;;
50012;SDS011;35901;48.694;9.476;2024-03-22T06:47:56;19.23;;;14.90;;
50012;SDS011;35901;48.694;9.476;2024-03-22T06:50:21;16.87;;;14.53;;
50012;SDS011;35901;48.694;9.476;2024-03-22T06:52:50;18.07;;;14.87;;
50012;SDS011;35901;48.694;9.476;2024-03-22T06:55:19;18.83;;;14.53;;
50012;SDS011;35901;48.694;9.476;2024-03-22T06:57:46;19.03;;;15.80;;
50012;SDS011;35901;48.694;9.476;2024-03-22T07:00:12;16.80;;;15.00;;
50012;SDS011;35901;48.694;9.476;2024-03-22T07:02:39;18.87;;;15.13;;
50012;SDS011;35901;48.694;9.476;2024-03-22T07:05:06;18.00;;;15.70;;
50012;SDS011;35901;48.694;9.476;2024-03-22T07:07:35;22.53;;;17.43;;
50012;SDS011;35901;48.694;9.476;2024-03-22T07:10:01;21.10;;;17.87;;
50012;SDS011;35901;48.694;9.476;2024-03-22T07:12:27;19.07;;;16.07;;
50012;SDS011;35901;48.694;9.476;2024-03-22T07:14:53;17.27;;;15.50;;
50012;SDS011;35901;48.694;9.476;2024-03-22T07:17:20;16.00;;;14.23;;
50012;SDS011;35901;48.694;9.476;2024-03-22T07:19:50;16.23;;;14.53;;
50012;SDS011;35901;48.694;9.476;2024-03-22T07:22:16;14.37;;;12.97;;
50012;SDS011;35901;48.694;9.476;2024-03-22T07:24:42;14.30;;;12.80;;
50012;SDS011;35901;48.694;9.476;2024-03-22T07:27:08;12.23;;;11.03;;
50012;SDS011;35901;48.694;9.476;2024-03-22T07:29:34;12.77;;;11.47;;
50012;SDS011;35901;48.694;9.476;2024-03-22T07:32:00;13.13;;;11.73;;
50012;SDS011;35901;48.694;9.476;2024-03-22T07:34:26;12.97;;;11.70;;
50012;SDS011;35901;48.694;9.476;2024-03-22T07:36:51;12.57;;;11.33;;
50012;SDS011;35901;48.694;9.476;2024-03-22T07:39:18;13.57;;;11.80;;
50012;SDS011;35901;48.694;9.476;2024-03-22T07:41:44;12.60;;;11.40;;
50012;SDS011;35901;48.694;9.476;2024-03-22T07:44:09;11.70;;;10.43;;
50012;SDS011;35901;48.694;9.476;2024-03-22T07:46:36;11.20;;;10.20;;
50012;SDS011;35901;48.694;9.476;2024-03-22T07:49:02;11.60;;;10.43;;
50012;SDS011;35901;48.694;9.476;2024-03-22T07:51:29;12.47;;;11.27;;
50012;SDS011;35901;48.694;9.476;2024-03-22T07:53:55;12.23;;;10.97;;
50012;SDS011;35901;48.694;9.476;2024-03-22T07:56:21;11.63;;;10.53;;
50012;SDS011;35901;48.694;9.476;2024-03-22T07:58:46;11.90;;;10.10;;
50012;SDS011;35901;48.694;9.476;2024-03-22T08:01:13;10.80;;;9.47;;
50012;SDS011;35901;48.694;9.476;2024-03-22T08:03:40;10.77;;;9.67;;
50012;SDS011;35901;48.694;9.476;2024-03-22T08:06:05;10.90;;;9.90;;
50012;SDS011;35901;48.694;9.476;2024-03-22T08:08:31;10.57;;;9.47;;
50012;SDS011;35901;48.694;9.476;2024-03-22T08:10:57;12.33;;;10.67;;
50012;SDS011;35901;48.694;9.476;2024-03-22T08:13:22;10.10;;;9.10;;
50012;SDS011;35901;48.694;9.476;2024-03-22T08:15:48;10.90;;;9.43;;
50012;SDS011;35901;48.694;9.476;2024-03-22T08:18:14;9.73;;;8.83;;
50012;SDS011;35901;48.694;9.476;2024-03-22T08:20:39;9.90;;;8.90;;
50012;SDS011;35901;48.694;9.476;2024-03-22T08:23:05;9.90;;;9.00;;
50012;SDS011;35901;48.694;9.476;2024-03-22T08:25:31;9.90;;;8.90;;
50012;SDS011;35901;48.694;9.476;2024-03-22T08:27:57;8.90;;;8.07;;
50012;SDS011;35901;48.694;9.476;2024-03-22T08:30:25;8.57;;;7.77;;
50012;SDS011;35901;48.694;9.476;2024-03-22T08:32:51;9.37;;;8.00;;
50012;SDS011;35901;48.694;9.476;2024-03-22T08:35:17;7.73;;;7.03;;
50012;SDS011;35901;48.694;9.476;2024-03-22T08:37:43;8.63;;;7.73;;
50012;SDS011;35901;48.694;9.476;2024-03-22T08:40:08;8.47;;;7.60;;
50012;SDS011;35901;48.694;9.476;2024-03-22T08:42:35;9.50;;;7.50;;
50012;SDS011;35901;48.694;9.476;2024-03-22T08:45:01;8.20;;;7.40;;
50012;SDS011;35901;48.694;9.476;2024-03-22T08:47:29;9.00;;;7.00;;
50012;SDS011;35901;48.694;9.476;2024-03-22T08:49:56;7.80;;;7.10;;
50012;SDS011;35901;48.694;9.476;2024-03-22T08:52:23;7.57;;;6.43;;
50012;SDS011;35901;48.694;9.476;2024-03-22T08:54:50;8.83;;;7.60;;
50012;SDS011;35901;48.694;9.476;2024-03-22T08:57:17;6.60;;;5.97;;
50012;SDS011;35901;48.694;9.476;2024-03-22T08:59:43;6.80;;;6.20;;
50012;SDS011;35901;48.694;9.476;2024-03-22T09:02:09;7.30;;;6.70;;
50012;SDS011;35901;48.694;9.476;2024-03-22T09:04:36;20.23;;;13.77;;
50012;SDS011;35901;48.694;9.476;2024-03-22T09:07:02;15.57;;;12.37;;
50012;SDS011;35901;48.694;9.476;2024-03-22T09:09:27;17.13;;;11.70;;
50012;SDS011;35901;48.694;9.476;2024-03-22T09:11:53;11.13;;;8.40;;
50012;SDS011;35901;48.694;9.476;2024-03-22T09:14:19;8.93;;;8.00;;
50012;SDS011;35901;48.694;9.476;2024-03-22T09:16:45;7.50;;;6.40;;
50012;SDS011;35901;48.694;9.476;2024-03-22T09:19:11;6.00;;;5.40;;
50012;SDS011;35901;48.694;9.476;2024-03-22T09:21:36;6.70;;;5.67;;
50012;SDS011;35901;48.694;9.476;2024-03-22T09:24:02;6.83;;;5.43;;
50012;SDS011;35901;48.694;9.476;2024-03-22T09:26:28;5.87;;;5.37;;
50012;SDS011;35901;48.694;9.476;2024-03-22T09:28:54;7.43;;;5.97;;
50012;SDS011;35901;48.694;9.476;2024-03-22T09:31:20;12.30;;;11.20;;
50012;SDS011;35901;48.694;9.476;2024-03-22T09:33:45;8.33;;;7.00;;
50012;SDS011;35901;48.694;9.476;2024-03-22T09:36:11;6.60;;;6.00;;
50012;SDS011;35901;48.694;9.476;2024-03-22T09:38:37;6.30;;;5.70;;
50012;SDS011;35901;48.694;9.476;2024-03-22T09:41:03;5.10;;;4.70;;
50012;SDS011;35901;48.694;9.476;2024-03-22T09:43:28;5.17;;;4.67;;
50012;SDS011;35901;48.694;9.476;2024-03-22T09:45:57;5.90;;;5.30;;
50012;SDS011;35901;48.694;9.476;2024-03-22T09:48:23;5.43;;;4.70;;
50012;SDS011;35901;48.694;9.476;2024-03-22T09:50:50;7.67;;;6.80;;
50012;SDS011;35901;48.694;9.476;2024-03-22T09:53:17;6.27;;;5.47;;
50012;SDS011;35901;48.694;9.476;2024-03-22T09:55:44;5.23;;;4.73;;
50012;SDS011;35901;48.694;9.476;2024-03-22T09:58:12;5.27;;;4.77;;
50012;SDS011;35901;48.694;9.476;2024-03-22T10:00:40;6.10;;;5.50;;
50012;SDS011;35901;48.694;9.476;2024-03-22T10:03:05;6.30;;;5.80;;
50012;SDS011;35901;48.694;9.476;2024-03-22T10:05:32;6.10;;;4.77;;
50012;SDS011;35901;48.694;9.476;2024-03-22T10:07:59;5.23;;;4.83;;
50012;SDS011;35901;48.694;9.476;2024-03-22T10:10:26;6.17;;;5.33;;
50012;SDS011;35901;48.694;9.476;2024-03-22T10:12:52;5.57;;;5.07;;
50012;SDS011;35901;48.694;9.476;2024-03-22T10:15:18;5.67;;;5.17;;
50012;SDS011;35901;48.694;9.476;2024-03-22T10:17:45;6.00;;;5.30;;
50012;SDS011;35901;48.694;9.476;2024-03-22T10:20:13;6.80;;;5.03;;
50012;SDS011;35901;48.694;9.476;2024-03-22T10:22:43;5.37;;;4.90;;
50012;SDS011;35901;48.694;9.476;2024-03-22T10:25:13;5.27;;;4.30;;
50012;SDS011;35901;48.694;9.476;2024-03-22T10:27:39;4.87;;;4.40;;
50012;SDS011;35901;48.694;9.476;2024-03-22T10:30:07;6.23;;;4.50;;
50012;SDS011;35901;48.694;9.476;2024-03-22T10:32:37;5.57;;;4.20;;
50012;SDS011;35901;48.694;9.476;2024-03-22T10:35:03;4.60;;;4.07;;
50012;SDS011;35901;48.694;9.476;2024-03-22T10:37:32;7.00;;;4.30;;
50012;SDS011;35901;48.694;9.476;2024-03-22T10:40:02;4.60;;;4.13;;
50012;SDS011;35901;48.694;9.476;2024-03-22T10:42:35;4.20;;;3.90;;
50012;SDS011;35901;48.694;9.476;2024-03-22T10:45:03;6.30;;;4.60;;
50012;SDS011;35901;48.694;9.476;2024-03-22T10:47:30;6.83;;;5.40;;
50012;SDS011;35901;48.694;9.476;2024-03-22T10:50:03;4.97;;;4.47;;
50012;SDS011;35901;48.694;9.476;2024-03-22T10:52:40;4.37;;;3.97;;
50012;SDS011;35901;48.694;9.476;2024-03-22T10:55:13;5.13;;;4.40;;
50012;SDS011;35901;48.694;9.476;2024-03-22T10:57:48;6.50;;;4.70;;
50012;SDS011;35901;48.694;9.476;2024-03-22T11:00:17;5.20;;;4.23;;
50012;SDS011;35901;48.694;9.476;2024-03-22T11:02:56;5.40;;;4.80;;
50012;SDS011;35901;48.694;9.476;2024-03-22T11:05:22;6.03;;;4.90;;
50012;SDS011;35901;48.694;9.476;2024-03-22T11:07:58;6.30;;;4.80;;
50012;SDS011;35901;48.694;9.476;2024-03-22T11:10:33;6.97;;;5.20;;
50012;SDS011;35901;48.694;9.476;2024-03-22T11:13:02;5.83;;;5.20;;
50012;SDS011;35901;48.694;9.476;2024-03-22T11:15:29;4.80;;;4.30;;
50012;SDS011;35901;48.694;9.476;2024-03-22T11:17:55;5.20;;;4.50;;
50012;SDS011;35901;48.694;9.476;2024-03-22T11:20:21;5.10;;;4.70;;
50012;SDS011;35901;48.694;9.476;2024-03-22T11:22:47;4.83;;;4.07;;
50012;SDS011;35901;48.694;9.476;2024-03-22T11:25:13;6.00;;;4.50;;
50012;SDS011;35901;48.694;9.476;2024-03-22T11:27:39;6.17;;;5.00;;
50012;SDS011;35901;48.694;9.476;2024-03-22T11:30:04;6.27;;;4.47;;
50012;SDS011;35901;48.694;9.476;2024-03-22T11:32:31;4.30;;;3.90;;
50012;SDS011;35901;48.694;9.476;2024-03-22T11:34:59;4.83;;;3.73;;
50012;SDS011;35901;48.694;9.476;2024-03-22T11:37:25;4.10;;;3.70;;
50012;SDS011;35901;48.694;9.476;2024-03-22T11:39:51;5.20;;;4.50;;
50012;SDS011;35901;48.694;9.476;2024-03-22T11:42:17;5.40;;;4.13;;
50012;SDS011;35901;48.694;9.476;2024-03-22T11:44:43;5.00;;;4.17;;
50012;SDS011;35901;48.694;9.476;2024-03-22T11:47:11;4.53;;;3.90;;
50012;SDS011;35901;48.694;9.476;2024-03-22T11:49:37;4.07;;;3.67;;
50012;SDS011;35901;48.694;9.476;2024-03-22T11:52:03;6.97;;;4.57;;
50012;SDS011;35901;48.694;9.476;2024-03-22T11:54:33;4.60;;;3.70;;
50012;SDS011;35901;48.694;9.476;2024-03-22T11:56:58;7.20;;;4.20;;
50012;SDS011;35901;48.694;9.476;2024-03-22T11:59:24;6.07;;;3.90;;
50012;SDS011;35901;48.694;9.476;2024-03-22T12:01:50;4.23;;;3.53;;
50012;SDS011;35901;48.694;9.476;2024-03-22T12:04:15;3.50;;;3.20;;
50012;SDS011;35901;48.694;9.476;2024-03-22T12:06:42;4.50;;;4.13;;
50012;SDS011;35901;48.694;9.476;2024-03-22T12:09:09;4.03;;;3.37;;
50012;SDS011;35901;48.694;9.476;2024-03-22T12:11:37;5.27;;;4.77;;
50012;SDS011;35901;48.694;9.476;2024-03-22T12:14:03;6.07;;;4.47;;
50012;SDS011;35901;48.694;9.476;2024-03-22T12:16:29;5.40;;;4.17;;
50012;SDS011;35901;48.694;9.476;2024-03-22T12:18:55;3.43;;;3.13;;
50012;SDS011;35901;48.694;9.476;2024-03-22T12:21:21;5.37;;;3.80;;
50012;SDS011;35901;48.694;9.476;2024-03-22T12:23:47;4.20;;;3.80;;
50012;SDS011;35901;48.694;9.476;2024-03-22T12:26:13;4.73;;;4.00;;
50012;SDS011;35901;48.694;9.476;2024-03-22T12:28:39;4.13;;;3.40;;
50012;SDS011;35901;48.694;9.476;2024-03-22T12:31:04;4.13;;;3.73;;
50012;SDS011;35901;48.694;9.476;2024-03-22T12:33:30;5.67;;;4.00;;
50012;SDS011;35901;48.694;9.476;2024-03-22T12:35:56;4.07;;;3.40;;
50012;SDS011;35901;48.694;9.476;2024-03-22T12:38:22;5.07;;;3.50;;
50012;SDS011;35901;48.694;9.476;2024-03-22T12:40:47;4.27;;;3.40;;
50012;SDS011;35901;48.694;9.476;2024-03-22T12:43:15;3.70;;;3.27;;
50012;SDS011;35901;48.694;9.476;2024-03-22T12:45:40;4.47;;;3.70;;
50012;SDS011;35901;48.694;9.476;2024-03-22T12:48:06;5.23;;;4.27;;
50012;SDS011;35901;48.694;9.476;2024-03-22T12:50:32;4.93;;;4.07;;
50012;SDS011;35901;48.694;9.476;2024-03-22T12:52:58;5.37;;;4.03;;
50012;SDS011;35901;48.694;9.476;2024-03-22T12:55:24;5.70;;;4.10;;
50012;SDS011;35901;48.694;9.476;2024-03-22T12:57:51;5.30;;;3.80;;
50012;SDS011;35901;48.694;9.476;2024-03-22T13:00:16;4.07;;;3.67;;
50012;SDS011;35901;48.694;9.476;2024-03-22T13:02:45;5.67;;;3.60;;
50012;SDS011;35901;48.694;9.476;2024-03-22T13:05:11;3.70;;;3.30;;
50012;SDS011;35901;48.694;9.476;2024-03-22T13:07:38;4.00;;;3.67;;
50012;SDS011;35901;48.694;9.476;2024-03-22T13:10:04;2.87;;;2.67;;
50012;SDS011;35901;48.694;9.476;2024-03-22T13:12:30;3.43;;;3.13;;
50012;SDS011;35901;48.694;9.476;2024-03-22T13:14:57;3.60;;;3.30;;
50012;SDS011;35901;48.694;9.476;2024-03-22T13:17:22;5.00;;;3.47;;
50012;SDS011;35901;48.694;9.476;2024-03-22T13:19:49;3.73;;;3.33;;
50012;SDS011;35901;48.694;9.476;2024-03-22T13:22:14;4.23;;;3.67;;
50012;SDS011;35901;48.694;9.476;2024-03-22T13:24:44;3.67;;;3.03;;
50012;SDS011;35901;48.694;9.476;2024-03-22T13:27:10;5.37;;;3.60;;
50012;SDS011;35901;48.694;9.476;2024-03-22T13:29:37;5.43;;;3.60;;
50012;SDS011;35901;48.694;9.476;2024-03-22T13:32:06;3.67;;;3.00;;
50012;SDS011;35901;48.694;9.476;2024-03-22T13:34:36;6.50;;;4.00;;
50012;SDS011;35901;48.694;9.476;2024-03-22T13:37:02;6.10;;;3.63;;
50012;SDS011;35901;48.694;9.476;2024-03-22T13:39:28;3.07;;;2.80;;
50012;SDS011;35901;48.694;9.476;2024-03-22T13:41:56;3.63;;;3.30;;
50012;SDS011;35901;48.694;9.476;2024-03-22T13:44:22;4.03;;;2.90;;
50012;SDS011;35901;48.694;9.476;2024-03-22T13:46:51;3.07;;;2.60;;
50012;SDS011;35901;48.694;9.476;2024-03-22T13:49:17;4.07;;;2.90;;
50012;SDS011;35901;48.694;9.476;2024-03-22T13:51:46;3.60;;;3.00;;
50012;SDS011;35901;48.694;9.476;2024-03-22T13:54:12;3.30;;;2.93;;
50012;SDS011;35901;48.694;9.476;2024-03-22T13:56:47;3.37;;;3.07;;
50012;SDS011;35901;48.694;9.476;2024-03-22T13:59:13;2.47;;;2.27;;
50012;SDS011;35901;48.694;9.476;2024-03-22T14:01:41;3.00;;;2.70;;
50012;SDS011;35901;48.694;9.476;2024-03-22T14:04:09;3.40;;;2.97;;
50012;SDS011;35901;48.694;9.476;2024-03-22T14:06:36;3.17;;;2.80;;
50012;SDS011;35901;48.694;9.476;2024-03-22T14:09:03;2.93;;;2.63;;
50012;SDS011;35901;48.694;9.476;2024-03-22T14:11:30;3.13;;;2.70;;
50012;SDS011;35901;48.694;9.476;2024-03-22T14:13:59;3.83;;;2.90;;
50012;SDS011;35901;48.694;9.476;2024-03-22T14:16:25;3.07;;;2.60;;
50012;SDS011;35901;48.694;9.476;2024-03-22T14:18:51;3.10;;;2.80;;
50012;SDS011;35901;48.694;9.476;2024-03-22T14:21:17;2.95;;;2.38;;
50012;SDS011;35901;48.694;9.476;2024-03-22T14:23:47;2.73;;;2.40;;
50012;SDS011;35901;48.694;9.476;2024-03-22T14:26:16;2.43;;;2.23;;
50012;SDS011;35901;48.694;9.476;2024-03-22T14:28:43;3.60;;;2.57;;